createdAt,value
2023-04-13T00:00:43.888Z,5.35
2023-04-13T00:03:13.615Z,5.38
2023-04-13T00:05:42.881Z,5.38
2023-04-13T00:08:12.160Z,5.39
2023-04-13T00:10:42.074Z,5.36
2023-04-13T00:13:11.966Z,5.31
2023-04-13T00:15:44.855Z,5.26
2023-04-13T00:18:14.039Z,5.28
2023-04-13T00:20:43.647Z,5.09
2023-04-13T00:23:12.792Z,5.13
2023-04-13T00:25:41.948Z,5.09
2023-04-13T00:28:11.784Z,5.09
2023-04-13T00:30:42.323Z,5.08
2023-04-13T00:33:11.712Z,5.10
2023-04-13T00:35:41.609Z,5.13
2023-04-13T00:38:11.552Z,5.12
2023-04-13T00:40:40.986Z,5.05
2023-04-13T00:43:10.113Z,5.00
2023-04-13T00:45:40.093Z,5.06
2023-04-13T00:48:11.670Z,4.95
2023-04-13T00:50:42.640Z,4.93
2023-04-13T00:53:13.531Z,4.90
2023-04-13T00:55:43.948Z,4.89
2023-04-13T00:58:14.225Z,4.88
2023-04-13T01:00:43.931Z,4.88
2023-04-13T01:03:14.604Z,4.78
2023-04-13T01:05:53.999Z,4.78
2023-04-13T01:08:30.949Z,4.74
2023-04-13T01:11:06.930Z,4.65
2023-04-13T01:13:43.343Z,4.67
2023-04-13T01:16:19.863Z,4.71
2023-04-13T01:18:54.328Z,4.52
2023-04-13T01:21:27.632Z,4.55
2023-04-13T01:24:10.019Z,4.55
2023-04-13T01:26:51.066Z,4.54
2023-04-13T01:29:21.859Z,4.49
2023-04-13T01:31:54.349Z,4.49
2023-04-13T01:34:24.809Z,4.44
2023-04-13T01:36:55.759Z,4.44
2023-04-13T01:39:26.811Z,4.35
2023-04-13T01:42:03.933Z,4.31
2023-04-13T01:44:36.644Z,4.40
2023-04-13T01:47:16.245Z,4.37
2023-04-13T01:50:13.260Z,4.29
2023-04-13T01:53:07.830Z,4.25
2023-04-13T01:55:41.877Z,4.31
2023-04-13T01:58:15.242Z,4.28
2023-04-13T02:00:49.885Z,4.35
2023-04-13T02:03:19.065Z,4.22
2023-04-13T02:05:48.310Z,4.16
2023-04-13T02:08:18.517Z,4.21
2023-04-13T02:10:49.287Z,4.22
2023-04-13T02:13:18.489Z,4.16
2023-04-13T02:15:49.214Z,4.16
2023-04-13T02:18:18.477Z,4.17
2023-04-13T02:20:47.737Z,4.23
2023-04-13T02:23:17.775Z,4.16
2023-04-13T02:25:48.216Z,4.14
2023-04-13T02:28:18.684Z,4.26
2023-04-13T02:30:51.068Z,4.19
2023-04-13T02:33:21.494Z,4.17
2023-04-13T02:35:51.946Z,4.19
2023-04-13T02:38:21.292Z,4.24
2023-04-13T02:40:56.646Z,4.18
2023-04-13T02:43:26.345Z,4.21
2023-04-13T02:45:57.635Z,4.10
2023-04-13T02:48:31.126Z,4.09
2023-04-13T02:51:01.078Z,4.10
2023-04-13T02:53:33.572Z,4.14
2023-04-13T02:56:09.504Z,4.10
2023-04-13T02:58:39.360Z,4.11
2023-04-13T03:01:16.210Z,4.02
2023-04-13T03:03:45.704Z,4.04
2023-04-13T03:06:15.126Z,3.95
2023-04-13T03:08:48.581Z,4.03
2023-04-13T03:11:23.340Z,3.94
2023-04-13T03:14:01.485Z,3.94
2023-04-13T03:16:32.322Z,3.91
2023-04-13T03:19:02.262Z,3.77
2023-04-13T03:21:34.377Z,3.64
2023-04-13T03:24:12.332Z,3.77
2023-04-13T03:26:41.595Z,3.81
2023-04-13T03:29:16.100Z,3.77
2023-04-13T03:31:48.994Z,3.66
2023-04-13T03:34:18.455Z,3.65
2023-04-13T03:36:49.322Z,3.65
2023-04-13T03:39:21.657Z,3.70
2023-04-13T03:41:50.819Z,3.67
2023-04-13T03:44:20.676Z,3.69
2023-04-13T03:46:51.274Z,3.71
2023-04-13T03:49:27.189Z,3.71
2023-04-13T03:51:56.268Z,3.73
2023-04-13T03:54:25.798Z,3.71
2023-04-13T03:56:55.410Z,3.67
2023-04-13T03:59:24.518Z,3.77
2023-04-13T04:01:56.590Z,3.72
2023-04-13T04:04:25.815Z,3.66
2023-04-13T04:06:55.906Z,3.66
2023-04-13T04:09:26.128Z,3.72
2023-04-13T04:11:56.714Z,3.57
2023-04-13T04:14:40.219Z,3.66
2023-04-13T04:17:24.187Z,3.72
2023-04-13T04:19:53.813Z,3.58
2023-04-13T04:22:29.834Z,3.72
2023-04-13T04:25:00.350Z,3.70
2023-04-13T04:27:29.719Z,3.68
2023-04-13T04:30:05.392Z,3.70
2023-04-13T04:32:40.585Z,3.68
2023-04-13T04:35:16.374Z,3.78
2023-04-13T04:37:52.842Z,3.83
2023-04-13T04:40:22.435Z,3.83
2023-04-13T04:42:52.623Z,3.88
2023-04-13T04:45:32.966Z,3.92
2023-04-13T04:48:05.478Z,3.93
2023-04-13T04:50:34.860Z,3.94
2023-04-13T04:53:14.046Z,3.96
2023-04-13T04:55:43.570Z,3.99
2023-04-13T04:58:20.676Z,3.99
2023-04-13T05:00:56.700Z,4.05
2023-04-13T05:03:27.327Z,4.05
2023-04-13T05:06:07.018Z,4.10
2023-04-13T05:08:36.314Z,4.17
2023-04-13T05:11:08.301Z,4.25
2023-04-13T05:13:38.297Z,4.19
2023-04-13T05:16:16.370Z,4.31
2023-04-13T05:18:48.511Z,4.36
2023-04-13T05:21:35.495Z,4.47
2023-04-13T05:24:05.116Z,4.54
2023-04-13T05:26:35.158Z,4.59
2023-04-13T05:29:04.645Z,4.71
2023-04-13T05:31:37.963Z,4.88
2023-04-13T05:34:08.630Z,5.04
2023-04-13T05:36:39.581Z,5.14
2023-04-13T05:39:13.865Z,5.44
2023-04-13T05:41:43.010Z,5.72
2023-04-13T05:44:12.292Z,5.68
2023-04-13T05:46:42.002Z,5.66
2023-04-13T05:49:12.490Z,5.47
2023-04-13T05:51:42.069Z,5.62
2023-04-13T05:54:11.698Z,6.05
2023-04-13T05:56:40.933Z,6.00
2023-04-13T05:59:11.414Z,6.07
2023-04-13T06:01:40.854Z,6.12
2023-04-13T06:04:14.380Z,6.11
2023-04-13T06:06:45.190Z,6.37
2023-04-13T06:09:15.586Z,6.51
2023-04-13T06:11:46.933Z,6.73
2023-04-13T06:14:17.641Z,6.95
2023-04-13T06:16:46.961Z,7.06
2023-04-13T06:19:17.498Z,7.14
2023-04-13T06:21:46.548Z,7.18
2023-04-13T06:24:17.197Z,6.83
2023-04-13T06:26:46.761Z,7.20
2023-04-13T06:29:15.910Z,7.06
2023-04-13T06:31:52.693Z,6.77
2023-04-13T06:34:23.976Z,6.54
2023-04-13T06:36:53.066Z,6.38
2023-04-13T06:39:25.192Z,6.51
2023-04-13T06:42:01.385Z,6.73
2023-04-13T06:44:49.685Z,6.51
2023-04-13T06:47:22.056Z,6.76
2023-04-13T06:49:52.779Z,6.71
2023-04-13T06:52:22.024Z,6.86
2023-04-13T06:54:51.176Z,6.89
2023-04-13T06:57:34.895Z,6.93
2023-04-13T07:00:12.511Z,6.92
2023-04-13T07:02:51.442Z,6.94
2023-04-13T07:05:22.562Z,7.06
2023-04-13T07:07:53.906Z,7.13
2023-04-13T07:10:23.600Z,7.25
2023-04-13T07:12:54.165Z,7.24
2023-04-13T07:15:26.321Z,7.22
2023-04-13T07:17:56.034Z,7.29
2023-04-13T07:20:26.842Z,7.38
2023-04-13T07:22:56.158Z,7.46
2023-04-13T07:25:26.082Z,7.48
2023-04-13T07:27:55.250Z,7.56
2023-04-13T07:30:24.900Z,7.72
2023-04-13T07:32:54.018Z,8.09
2023-04-13T07:35:25.201Z,8.12
2023-04-13T07:37:54.444Z,8.00
2023-04-13T07:40:24.325Z,8.11
2023-04-13T07:42:57.320Z,8.05
2023-04-13T07:45:30.120Z,8.27
2023-04-13T07:47:59.426Z,8.10
2023-04-13T07:50:30.046Z,8.10
2023-04-13T07:52:59.173Z,8.24
2023-04-13T07:55:29.532Z,8.41
2023-04-13T07:57:59.743Z,8.25
2023-04-13T08:00:29.136Z,8.26
2023-04-13T08:03:01.180Z,8.33
2023-04-13T08:05:36.086Z,8.41
2023-04-13T08:08:05.696Z,8.40
2023-04-13T08:10:34.751Z,8.24
2023-04-13T08:13:06.890Z,8.34
2023-04-13T08:15:36.270Z,8.36
2023-04-13T08:18:05.691Z,8.27
2023-04-13T08:20:37.402Z,8.34
2023-04-13T08:23:07.629Z,8.44
2023-04-13T08:25:41.925Z,8.33
2023-04-13T08:28:11.027Z,8.50
2023-04-13T08:30:40.077Z,8.46
2023-04-13T08:33:10.002Z,8.46
2023-04-13T08:35:41.098Z,8.58
2023-04-13T08:38:14.047Z,8.63
2023-04-13T08:40:50.241Z,8.73
2023-04-13T08:43:25.815Z,8.72
2023-04-13T08:45:55.211Z,8.74
2023-04-13T08:48:24.676Z,8.87
2023-04-13T08:51:01.120Z,9.02
2023-04-13T08:53:32.818Z,9.04
2023-04-13T08:56:04.145Z,9.06
2023-04-13T08:58:36.526Z,9.09
2023-04-13T09:01:07.396Z,9.26
2023-04-13T09:03:43.948Z,9.33
2023-04-13T09:06:16.064Z,9.22
2023-04-13T09:08:46.350Z,9.21
2023-04-13T09:11:16.713Z,9.34
2023-04-13T09:13:51.925Z,9.97
2023-04-13T09:16:22.337Z,10.85
2023-04-13T09:18:55.523Z,11.24
2023-04-13T09:21:37.347Z,10.70
2023-04-13T09:24:07.562Z,10.37
2023-04-13T09:26:43.835Z,10.39
2023-04-13T09:29:19.719Z,10.15
2023-04-13T09:31:49.494Z,10.23
2023-04-13T09:34:29.690Z,10.64
2023-04-13T09:37:01.802Z,10.24
2023-04-13T09:39:31.306Z,10.01
2023-04-13T09:42:11.941Z,9.93
2023-04-13T09:44:41.174Z,9.99
2023-04-13T09:47:12.795Z,10.18
2023-04-13T09:49:43.023Z,10.41
2023-04-13T09:52:22.680Z,10.07
2023-04-13T09:54:52.434Z,10.67
2023-04-13T09:57:25.694Z,10.79
2023-04-13T09:59:56.392Z,10.66
2023-04-13T10:02:26.312Z,10.38
2023-04-13T10:04:55.847Z,10.87
2023-04-13T10:07:29.991Z,10.64
2023-04-13T10:09:59.178Z,11.26
2023-04-13T10:12:29.928Z,11.44
2023-04-13T10:15:11.440Z,11.90
2023-04-13T10:17:53.628Z,12.08
2023-04-13T10:20:24.341Z,11.81
2023-04-13T10:22:55.531Z,11.26
2023-04-13T10:25:32.646Z,11.52
2023-04-13T10:28:03.785Z,11.16
2023-04-13T10:30:32.888Z,10.89
2023-04-13T10:33:06.535Z,10.77
2023-04-13T10:35:38.965Z,10.88
2023-04-13T10:38:11.491Z,11.66
2023-04-13T10:40:44.505Z,12.02
2023-04-13T10:43:13.635Z,11.32
2023-04-13T10:45:42.729Z,11.00
2023-04-13T10:48:22.255Z,10.50
2023-04-13T10:50:59.893Z,9.73
2023-04-13T10:53:32.831Z,9.69
2023-04-13T10:56:02.394Z,10.40
2023-04-13T10:58:33.113Z,10.63
2023-04-13T11:01:03.255Z,11.26
2023-04-13T11:03:32.590Z,11.93
2023-04-13T11:06:02.354Z,11.29
2023-04-13T11:08:34.963Z,11.26
2023-04-13T11:11:04.058Z,11.25
2023-04-13T11:13:33.633Z,11.53
2023-04-13T11:16:03.817Z,11.70
2023-04-13T11:18:33.343Z,11.35
2023-04-13T11:21:05.269Z,12.15
2023-04-13T11:23:38.320Z,12.78
2023-04-13T11:26:08.277Z,11.81
2023-04-13T11:28:43.708Z,13.35
2023-04-13T11:31:13.298Z,13.42
2023-04-13T11:33:44.483Z,12.12
2023-04-13T11:36:14.194Z,12.27
2023-04-13T11:38:45.108Z,12.27
2023-04-13T11:41:17.305Z,12.85
2023-04-13T11:43:48.314Z,12.64
2023-04-13T11:46:25.423Z,13.00
2023-04-13T11:48:55.644Z,12.15
2023-04-13T11:51:26.655Z,12.02
2023-04-13T11:53:57.313Z,11.80
2023-04-13T11:56:26.951Z,12.66
2023-04-13T11:58:56.235Z,13.58
2023-04-13T12:01:32.211Z,12.36
2023-04-13T12:04:14.796Z,11.85
2023-04-13T12:06:47.540Z,12.07
2023-04-13T12:09:20.842Z,12.29
2023-04-13T12:12:08.412Z,12.42
2023-04-13T12:17:37.508Z,13.97
2023-04-13T12:20:07.613Z,13.63
2023-04-13T12:22:52.266Z,13.08
2023-04-13T12:25:35.460Z,13.94
2023-04-13T12:28:06.066Z,14.33
2023-04-13T12:30:35.297Z,14.30
2023-04-13T12:33:04.517Z,14.64
2023-04-13T12:35:33.667Z,13.34
2023-04-13T12:38:02.920Z,13.12
2023-04-13T12:40:33.477Z,14.06
2023-04-13T12:43:02.988Z,13.78
2023-04-13T12:45:32.140Z,14.65
2023-04-13T12:48:01.224Z,13.52
2023-04-13T12:50:32.542Z,12.64
2023-04-13T12:53:02.807Z,13.45
2023-04-13T12:55:33.226Z,13.16
2023-04-13T12:58:02.578Z,13.09
2023-04-13T13:00:31.709Z,13.18
2023-04-13T13:03:12.888Z,13.91
2023-04-13T13:05:43.268Z,13.05
2023-04-13T13:08:12.369Z,13.76
2023-04-13T13:10:43.676Z,13.13
2023-04-13T13:13:16.995Z,13.35
2023-04-13T13:15:46.287Z,13.86
2023-04-13T13:18:16.624Z,13.10
2023-04-13T13:20:45.788Z,13.10
2023-04-13T13:23:14.903Z,12.87
2023-04-13T13:25:52.745Z,13.14
2023-04-13T13:28:34.493Z,12.76
2023-04-13T13:31:03.606Z,13.00
2023-04-13T13:33:32.734Z,13.06
2023-04-13T13:36:02.430Z,13.24
2023-04-13T13:38:31.514Z,13.25
2023-04-13T13:41:02.001Z,13.54
2023-04-13T13:43:31.317Z,12.58
2023-04-13T13:46:00.468Z,12.83
2023-04-13T13:48:30.202Z,12.65
2023-04-13T13:51:11.518Z,12.86
2023-04-13T13:53:41.571Z,12.69
2023-04-13T13:56:11.990Z,12.68
2023-04-13T13:58:41.095Z,12.55
2023-04-13T14:01:10.224Z,12.82
2023-04-13T14:03:39.715Z,12.59
2023-04-13T14:06:09.496Z,12.67
2023-04-13T14:08:38.919Z,12.32
2023-04-13T14:11:08.059Z,12.36
2023-04-13T14:13:38.568Z,12.40
2023-04-13T14:16:08.473Z,12.26
2023-04-13T14:18:37.787Z,12.23
2023-04-13T14:21:07.363Z,12.46
2023-04-13T14:23:37.461Z,12.27
2023-04-13T14:26:06.781Z,12.17
2023-04-13T14:28:39.074Z,12.08
2023-04-13T14:31:08.248Z,12.16
2023-04-13T14:33:38.729Z,11.49
2023-04-13T14:36:08.700Z,9.69
2023-04-13T14:38:37.955Z,8.97
2023-04-13T14:41:07.165Z,8.90
2023-04-13T14:43:37.729Z,9.03
2023-04-13T14:46:06.967Z,9.07
2023-04-13T14:48:36.163Z,9.27
2023-04-13T14:51:05.386Z,9.50
2023-04-13T14:53:34.460Z,10.04
2023-04-13T14:56:03.770Z,10.09
2023-04-13T14:58:32.824Z,10.03
2023-04-13T15:01:04.614Z,10.99
2023-04-13T15:03:34.166Z,11.54
2023-04-13T15:06:05.340Z,11.02
2023-04-13T15:08:34.969Z,11.78
2023-04-13T15:11:04.303Z,11.69
2023-04-13T15:13:33.526Z,12.50
2023-04-13T15:16:04.041Z,11.75
2023-04-13T15:18:33.140Z,12.23
2023-04-13T15:21:03.852Z,12.75
2023-04-13T15:23:33.686Z,12.70
2023-04-13T15:26:02.943Z,13.40
2023-04-13T15:28:32.065Z,12.79
2023-04-13T15:31:01.422Z,13.05
2023-04-13T15:33:31.948Z,12.97
2023-04-13T15:36:01.054Z,13.03
2023-04-13T15:38:30.200Z,12.74
2023-04-13T15:40:59.338Z,12.49
2023-04-13T15:43:28.728Z,12.43
2023-04-13T15:45:57.978Z,11.42
2023-04-13T15:48:27.179Z,11.46
2023-04-13T15:51:00.768Z,12.01
2023-04-13T15:53:29.975Z,12.02
2023-04-13T15:55:59.045Z,11.96
2023-04-13T15:58:28.594Z,11.42
2023-04-13T16:01:04.393Z,11.44
2023-04-13T16:03:35.414Z,11.63
2023-04-13T16:06:06.702Z,11.87
2023-04-13T16:08:35.842Z,11.61
2023-04-13T16:11:04.948Z,11.31
2023-04-13T16:13:48.760Z,11.54
2023-04-13T16:16:18.895Z,12.18
2023-04-13T16:18:49.154Z,12.65
2023-04-13T16:21:20.028Z,12.90
2023-04-13T16:23:49.171Z,11.97
2023-04-13T16:26:20.256Z,11.65
2023-04-13T16:28:51.174Z,12.22
2023-04-13T16:31:20.352Z,11.79
2023-04-13T16:33:49.455Z,11.44
2023-04-13T16:36:19.901Z,11.58
2023-04-13T16:38:49.316Z,11.38
2023-04-13T16:41:18.468Z,11.53
2023-04-13T16:43:47.612Z,11.60
2023-04-13T16:46:16.969Z,11.33
2023-04-13T16:48:46.086Z,11.31
2023-04-13T16:51:15.364Z,11.27
2023-04-13T16:53:46.089Z,11.28
2023-04-13T16:56:17.268Z,11.21
2023-04-13T16:58:46.449Z,11.10
2023-04-13T17:01:15.659Z,10.55
2023-04-13T17:03:44.955Z,10.15
2023-04-13T17:06:14.223Z,9.79
2023-04-13T17:08:43.333Z,9.61
2023-04-13T17:11:13.729Z,9.66
2023-04-13T17:13:42.933Z,9.55
2023-04-13T17:16:12.050Z,9.46
2023-04-13T17:18:41.198Z,9.09
2023-04-13T17:21:10.324Z,8.99
2023-04-13T17:23:40.456Z,8.68
2023-04-13T17:26:09.526Z,8.56
2023-04-13T17:28:40.009Z,8.63
2023-04-13T17:31:09.195Z,8.67
2023-04-13T17:33:38.243Z,8.60
2023-04-13T17:36:07.455Z,8.64
2023-04-13T17:38:36.585Z,8.91
2023-04-13T17:41:06.565Z,8.99
2023-04-13T17:43:35.856Z,9.11
2023-04-13T17:46:06.547Z,9.03
2023-04-13T17:48:35.737Z,9.30
2023-04-13T17:51:04.936Z,9.08
2023-04-13T17:53:34.094Z,8.89
2023-04-13T17:56:03.224Z,8.81
2023-04-13T17:58:32.293Z,8.71
2023-04-13T18:01:09.413Z,8.68
2023-04-13T18:03:39.276Z,8.43
2023-04-13T18:06:08.779Z,8.52
2023-04-13T18:08:38.061Z,8.43
2023-04-13T18:11:07.234Z,8.36
2023-04-13T18:13:36.832Z,8.13
2023-04-13T18:16:06.867Z,8.13
2023-04-13T18:18:37.449Z,8.07
2023-04-13T18:21:06.700Z,8.02
2023-04-13T18:23:36.030Z,7.99
2023-04-13T18:26:05.210Z,7.87
2023-04-13T18:28:36.758Z,7.80
2023-04-13T18:31:07.076Z,7.75
2023-04-13T18:33:37.676Z,7.65
2023-04-13T18:36:07.183Z,7.57
2023-04-13T18:38:38.108Z,7.50
2023-04-13T18:41:07.223Z,7.30
2023-04-13T18:43:36.334Z,7.26
2023-04-13T18:46:05.801Z,7.22
2023-04-13T18:48:36.413Z,7.19
2023-04-13T18:51:07.827Z,7.16
2023-04-13T18:53:37.003Z,7.21
2023-04-13T18:56:06.133Z,7.21
2023-04-13T18:58:35.386Z,7.20
2023-04-13T19:01:04.502Z,7.14
2023-04-13T19:03:33.689Z,7.08
2023-04-13T19:06:04.220Z,7.06
2023-04-13T19:08:33.293Z,7.11
2023-04-13T19:11:02.361Z,6.95
2023-04-13T19:13:31.642Z,7.47
2023-04-13T19:16:04.384Z,7.35
2023-04-13T19:18:33.826Z,7.47
2023-04-13T19:21:06.424Z,7.54
2023-04-13T19:23:37.071Z,7.61
2023-04-13T19:26:07.541Z,7.68
2023-04-13T19:28:36.597Z,7.61
2023-04-13T19:31:05.699Z,7.65
2023-04-13T19:33:35.440Z,7.80
2023-04-13T19:36:06.452Z,7.80
2023-04-13T19:38:35.724Z,7.82
2023-04-13T19:41:04.799Z,7.82
2023-04-13T19:43:34.142Z,7.78
2023-04-13T19:46:03.539Z,7.46
2023-04-13T19:48:32.667Z,7.39
2023-04-13T19:51:01.923Z,7.49
2023-04-13T19:53:32.430Z,7.63
2023-04-13T19:56:01.521Z,7.51
2023-04-13T19:58:30.779Z,7.61
2023-04-13T20:01:00.273Z,7.61
2023-04-13T20:03:29.973Z,7.61
2023-04-13T20:05:59.263Z,7.52
2023-04-13T20:08:28.415Z,7.53
2023-04-13T20:10:59.950Z,7.43
2023-04-13T20:13:29.097Z,7.46
2023-04-13T20:15:58.207Z,7.29
2023-04-13T20:18:27.525Z,7.20
2023-04-13T20:20:56.694Z,7.16
2023-04-13T20:23:26.031Z,7.02
2023-04-13T20:25:55.257Z,6.95
2023-04-13T20:28:25.929Z,6.86
2023-04-13T20:30:55.136Z,6.84
2023-04-13T20:33:24.223Z,6.81
2023-04-13T20:35:54.786Z,6.77
2023-04-13T20:38:24.723Z,6.68
2023-04-13T20:40:56.961Z,6.66
2023-04-13T20:43:27.822Z,6.61
2023-04-13T20:45:57.456Z,6.60
2023-04-13T20:51:01.786Z,6.65
2023-04-13T20:53:31.864Z,6.56
2023-04-13T20:56:01.193Z,6.58
2023-04-13T20:58:33.336Z,6.46
2023-04-13T21:01:03.293Z,6.39
2023-04-13T21:03:32.692Z,6.40
2023-04-13T21:06:02.207Z,6.34
2023-04-13T21:08:31.505Z,6.28
2023-04-13T21:11:00.640Z,6.23
2023-04-13T21:13:31.615Z,6.12
2023-04-13T21:16:01.027Z,6.10
2023-04-13T21:18:30.102Z,6.04
2023-04-13T21:20:59.165Z,5.95
2023-04-13T21:23:28.275Z,6.01
2023-04-13T21:25:57.363Z,5.95
2023-04-13T21:28:26.373Z,5.90
2023-04-13T21:30:57.216Z,5.86
2023-04-13T21:33:26.403Z,5.98
2023-04-13T21:35:55.475Z,6.03
2023-04-13T21:38:24.614Z,5.90
2023-04-13T21:40:53.678Z,5.85
2023-04-13T21:43:22.818Z,5.79
2023-04-13T21:45:51.951Z,5.67
2023-04-13T21:48:22.430Z,5.62
2023-04-13T21:50:52.855Z,5.62
2023-04-13T21:53:21.936Z,5.59
2023-04-13T21:55:51.000Z,5.59
2023-04-13T21:58:20.048Z,5.84
2023-04-13T22:00:49.130Z,5.86
2023-04-13T22:03:18.469Z,5.75
2023-04-13T22:05:49.091Z,5.77
2023-04-13T22:08:18.214Z,5.72
2023-04-13T22:10:47.784Z,5.75
2023-04-13T22:13:16.870Z,5.64
2023-04-13T22:15:45.982Z,5.51
2023-04-13T22:18:15.166Z,5.47
2023-04-13T22:20:44.661Z,5.42
2023-04-13T22:23:15.520Z,5.24
2023-04-13T22:25:51.492Z,5.45
2023-04-13T22:28:20.703Z,5.44
2023-04-13T22:30:50.290Z,5.48
2023-04-13T22:33:19.476Z,5.49
2023-04-13T22:35:50.621Z,5.47
2023-04-13T22:38:21.250Z,5.44
2023-04-13T22:40:50.758Z,5.40
2023-04-13T22:43:19.830Z,5.34
2023-04-13T22:45:57.195Z,5.33
2023-04-13T22:48:28.018Z,5.30
2023-04-13T22:50:57.364Z,5.22
2023-04-13T22:53:28.130Z,5.20
2023-04-13T22:55:57.243Z,5.18
2023-04-13T22:58:26.453Z,5.18
2023-04-13T23:00:55.629Z,5.16
2023-04-13T23:03:24.825Z,5.12
2023-04-13T23:05:53.983Z,5.05
2023-04-13T23:08:23.104Z,4.86
2023-04-13T23:10:53.572Z,4.57
2023-04-13T23:13:22.751Z,4.52
2023-04-13T23:15:59.479Z,4.44
2023-04-13T23:18:28.907Z,4.43
2023-04-13T23:20:58.073Z,4.44
2023-04-13T23:23:27.126Z,4.42
2023-04-13T23:25:57.599Z,4.39
2023-04-13T23:28:26.694Z,4.23
2023-04-13T23:31:02.893Z,4.25
2023-04-13T23:33:31.965Z,4.20
2023-04-13T23:36:01.295Z,4.13
2023-04-13T23:38:30.715Z,4.20
2023-04-13T23:41:01.188Z,4.33
2023-04-13T23:43:30.424Z,4.32
2023-04-13T23:45:59.732Z,4.39
2023-04-13T23:48:28.911Z,4.31
2023-04-13T23:50:58.266Z,4.35
2023-04-13T23:53:27.338Z,4.38
2023-04-13T23:55:56.458Z,4.35
2023-04-13T23:58:26.907Z,4.37
